sensor_id;sensor_type;location;lat;lon;timestamp;P1;durP1;ratioP1;P2;durP2;ratioP2
7881;SDS011;3986;41.884;23.466;2022-11-20T00:01:11;9.73;;;8.50;;
7881;SDS011;3986;41.884;23.466;2022-11-20T00:03:39;11.50;;;8.83;;
7881;SDS011;3986;41.884;23.466;2022-11-20T00:06:07;16.97;;;12.93;;
7881;SDS011;3986;41.884;23.466;2022-11-20T00:08:35;7.27;;;5.47;;
7881;SDS011;3986;41.884;23.466;2022-11-20T00:11:03;8.60;;;7.73;;
7881;SDS011;3986;41.884;23.466;2022-11-20T00:13:30;11.17;;;5.87;;
7881;SDS011;3986;41.884;23.466;2022-11-20T00:15:57;8.67;;;4.30;;
7881;SDS011;3986;41.884;23.466;2022-11-20T00:18:26;9.47;;;5.17;;
7881;SDS011;3986;41.884;23.466;2022-11-20T00:20:53;11.23;;;5.50;;
7881;SDS011;3986;41.884;23.466;2022-11-20T00:23:26;11.80;;;5.63;;
7881;SDS011;3986;41.884;23.466;2022-11-20T00:25:52;10.43;;;5.10;;
7881;SDS011;3986;41.884;23.466;2022-11-20T00:28:19;9.60;;;4.53;;
7881;SDS011;3986;41.884;23.466;2022-11-20T00:30:46;8.13;;;4.77;;
7881;SDS011;3986;41.884;23.466;2022-11-20T00:33:13;5.03;;;3.80;;
7881;SDS011;3986;41.884;23.466;2022-11-20T00:35:41;7.93;;;5.37;;
7881;SDS011;3986;41.884;23.466;2022-11-20T00:38:07;12.77;;;6.90;;
7881;SDS011;3986;41.884;23.466;2022-11-20T00:40:34;12.23;;;7.00;;
7881;SDS011;3986;41.884;23.466;2022-11-20T00:43:01;10.23;;;6.50;;
7881;SDS011;3986;41.884;23.466;2022-11-20T00:45:28;10.30;;;6.43;;
7881;SDS011;3986;41.884;23.466;2022-11-20T00:47:54;9.93;;;4.67;;
7881;SDS011;3986;41.884;23.466;2022-11-20T00:50:21;11.60;;;5.80;;
7881;SDS011;3986;41.884;23.466;2022-11-20T00:52:49;12.60;;;6.40;;
7881;SDS011;3986;41.884;23.466;2022-11-20T00:55:16;9.03;;;4.20;;
7881;SDS011;3986;41.884;23.466;2022-11-20T00:57:43;6.60;;;4.07;;
7881;SDS011;3986;41.884;23.466;2022-11-20T01:00:10;14.97;;;7.27;;
7881;SDS011;3986;41.884;23.466;2022-11-20T01:02:37;7.17;;;4.17;;
7881;SDS011;3986;41.884;23.466;2022-11-20T01:05:03;7.83;;;4.50;;
7881;SDS011;3986;41.884;23.466;2022-11-20T01:07:31;12.03;;;6.37;;
7881;SDS011;3986;41.884;23.466;2022-11-20T01:09:59;13.33;;;6.80;;
7881;SDS011;3986;41.884;23.466;2022-11-20T01:12:26;7.73;;;5.67;;
7881;SDS011;3986;41.884;23.466;2022-11-20T01:14:53;8.40;;;4.53;;
7881;SDS011;3986;41.884;23.466;2022-11-20T01:17:20;12.33;;;4.50;;
7881;SDS011;3986;41.884;23.466;2022-11-20T01:19:48;10.80;;;4.93;;
7881;SDS011;3986;41.884;23.466;2022-11-20T01:22:15;10.80;;;7.43;;
7881;SDS011;3986;41.884;23.466;2022-11-20T01:24:42;11.90;;;7.93;;
7881;SDS011;3986;41.884;23.466;2022-11-20T01:27:10;9.33;;;7.90;;
7881;SDS011;3986;41.884;23.466;2022-11-20T01:29:36;21.40;;;13.93;;
7881;SDS011;3986;41.884;23.466;2022-11-20T01:32:03;11.30;;;9.50;;
7881;SDS011;3986;41.884;23.466;2022-11-20T01:34:30;9.10;;;7.33;;
7881;SDS011;3986;41.884;23.466;2022-11-20T01:36:57;16.17;;;11.10;;
7881;SDS011;3986;41.884;23.466;2022-11-20T01:39:25;13.30;;;8.67;;
7881;SDS011;3986;41.884;23.466;2022-11-20T01:41:53;12.00;;;7.80;;
7881;SDS011;3986;41.884;23.466;2022-11-20T01:44:47;10.53;;;7.63;;
7881;SDS011;3986;41.884;23.466;2022-11-20T01:47:17;12.57;;;7.50;;
7881;SDS011;3986;41.884;23.466;2022-11-20T01:49:48;13.77;;;7.27;;
7881;SDS011;3986;41.884;23.466;2022-11-20T01:52:18;10.07;;;7.07;;
7881;SDS011;3986;41.884;23.466;2022-11-20T01:54:50;11.83;;;6.43;;
7881;SDS011;3986;41.884;23.466;2022-11-20T01:57:20;11.60;;;5.80;;
7881;SDS011;3986;41.884;23.466;2022-11-20T01:59:51;14.00;;;8.37;;
7881;SDS011;3986;41.884;23.466;2022-11-20T02:02:23;9.93;;;6.83;;
7881;SDS011;3986;41.884;23.466;2022-11-20T02:04:50;10.73;;;5.03;;
7881;SDS011;3986;41.884;23.466;2022-11-20T02:07:19;16.53;;;7.77;;
7881;SDS011;3986;41.884;23.466;2022-11-20T02:09:47;9.97;;;5.10;;
7881;SDS011;3986;41.884;23.466;2022-11-20T02:12:13;9.13;;;5.10;;
7881;SDS011;3986;41.884;23.466;2022-11-20T02:14:56;6.87;;;4.07;;
7881;SDS011;3986;41.884;23.466;2022-11-20T02:17:23;11.70;;;4.33;;
7881;SDS011;3986;41.884;23.466;2022-11-20T02:19:50;10.50;;;4.90;;
7881;SDS011;3986;41.884;23.466;2022-11-20T02:22:18;10.33;;;4.27;;
7881;SDS011;3986;41.884;23.466;2022-11-20T02:24:51;9.47;;;4.47;;
7881;SDS011;3986;41.884;23.466;2022-11-20T02:27:18;12.10;;;6.20;;
7881;SDS011;3986;41.884;23.466;2022-11-20T02:29:46;8.50;;;5.13;;
7881;SDS011;3986;41.884;23.466;2022-11-20T02:32:19;10.57;;;6.27;;
7881;SDS011;3986;41.884;23.466;2022-11-20T02:34:46;13.73;;;7.27;;
7881;SDS011;3986;41.884;23.466;2022-11-20T02:37:13;11.17;;;6.73;;
7881;SDS011;3986;41.884;23.466;2022-11-20T02:39:40;11.17;;;6.33;;
7881;SDS011;3986;41.884;23.466;2022-11-20T02:42:09;5.40;;;4.10;;
7881;SDS011;3986;41.884;23.466;2022-11-20T02:44:36;7.13;;;4.00;;
7881;SDS011;3986;41.884;23.466;2022-11-20T02:47:03;7.97;;;4.13;;
7881;SDS011;3986;41.884;23.466;2022-11-20T02:49:30;8.37;;;4.27;;
7881;SDS011;3986;41.884;23.466;2022-11-20T02:51:57;9.37;;;3.73;;
7881;SDS011;3986;41.884;23.466;2022-11-20T02:54:23;6.57;;;3.73;;
7881;SDS011;3986;41.884;23.466;2022-11-20T02:56:50;7.00;;;3.00;;
7881;SDS011;3986;41.884;23.466;2022-11-20T02:59:18;8.77;;;3.77;;
7881;SDS011;3986;41.884;23.466;2022-11-20T03:01:45;8.77;;;3.87;;
7881;SDS011;3986;41.884;23.466;2022-11-20T03:04:12;6.57;;;3.90;;
7881;SDS011;3986;41.884;23.466;2022-11-20T03:06:39;8.40;;;3.70;;
7881;SDS011;3986;41.884;23.466;2022-11-20T03:09:05;6.00;;;3.50;;
7881;SDS011;3986;41.884;23.466;2022-11-20T03:11:32;5.87;;;3.60;;
7881;SDS011;3986;41.884;23.466;2022-11-20T03:14:01;7.03;;;3.87;;
7881;SDS011;3986;41.884;23.466;2022-11-20T03:16:30;5.87;;;3.77;;
7881;SDS011;3986;41.884;23.466;2022-11-20T03:18:58;8.57;;;4.30;;
7881;SDS011;3986;41.884;23.466;2022-11-20T03:21:25;9.83;;;4.30;;
7881;SDS011;3986;41.884;23.466;2022-11-20T03:23:52;14.00;;;4.97;;
7881;SDS011;3986;41.884;23.466;2022-11-20T03:26:20;7.60;;;3.80;;
7881;SDS011;3986;41.884;23.466;2022-11-20T03:28:49;11.17;;;4.27;;
7881;SDS011;3986;41.884;23.466;2022-11-20T03:31:18;8.07;;;4.40;;
7881;SDS011;3986;41.884;23.466;2022-11-20T03:33:48;8.57;;;4.13;;
7881;SDS011;3986;41.884;23.466;2022-11-20T03:36:16;8.37;;;4.13;;
7881;SDS011;3986;41.884;23.466;2022-11-20T03:38:43;10.00;;;4.17;;
7881;SDS011;3986;41.884;23.466;2022-11-20T03:41:11;9.30;;;4.10;;
7881;SDS011;3986;41.884;23.466;2022-11-20T03:43:39;7.20;;;4.83;;
7881;SDS011;3986;41.884;23.466;2022-11-20T03:46:06;4.20;;;3.80;;
7881;SDS011;3986;41.884;23.466;2022-11-20T03:48:34;8.77;;;4.27;;
7881;SDS011;3986;41.884;23.466;2022-11-20T03:51:08;9.43;;;5.33;;
7881;SDS011;3986;41.884;23.466;2022-11-20T03:53:35;6.03;;;4.87;;
7881;SDS011;3986;41.884;23.466;2022-11-20T03:56:02;6.27;;;3.50;;
7881;SDS011;3986;41.884;23.466;2022-11-20T03:58:29;11.17;;;6.23;;
7881;SDS011;3986;41.884;23.466;2022-11-20T04:00:56;10.00;;;4.57;;
7881;SDS011;3986;41.884;23.466;2022-11-20T04:03:23;10.97;;;4.87;;
7881;SDS011;3986;41.884;23.466;2022-11-20T04:05:50;11.53;;;5.10;;
7881;SDS011;3986;41.884;23.466;2022-11-20T04:08:18;9.37;;;5.70;;
7881;SDS011;3986;41.884;23.466;2022-11-20T04:10:45;9.13;;;5.13;;
7881;SDS011;3986;41.884;23.466;2022-11-20T04:13:11;11.90;;;5.43;;
7881;SDS011;3986;41.884;23.466;2022-11-20T04:15:38;5.80;;;4.00;;
7881;SDS011;3986;41.884;23.466;2022-11-20T04:18:05;8.87;;;4.43;;
7881;SDS011;3986;41.884;23.466;2022-11-20T04:20:32;6.07;;;4.40;;
7881;SDS011;3986;41.884;23.466;2022-11-20T04:22:59;8.47;;;4.60;;
7881;SDS011;3986;41.884;23.466;2022-11-20T04:25:27;10.93;;;4.63;;
7881;SDS011;3986;41.884;23.466;2022-11-20T04:27:54;13.57;;;5.60;;
7881;SDS011;3986;41.884;23.466;2022-11-20T04:30:21;8.93;;;5.10;;
7881;SDS011;3986;41.884;23.466;2022-11-20T04:32:47;10.37;;;5.47;;
7881;SDS011;3986;41.884;23.466;2022-11-20T04:35:14;13.47;;;6.80;;
7881;SDS011;3986;41.884;23.466;2022-11-20T04:37:41;11.77;;;5.70;;
7881;SDS011;3986;41.884;23.466;2022-11-20T04:40:08;9.87;;;6.73;;
7881;SDS011;3986;41.884;23.466;2022-11-20T04:42:37;10.13;;;6.63;;
7881;SDS011;3986;41.884;23.466;2022-11-20T04:45:04;10.57;;;6.33;;
7881;SDS011;3986;41.884;23.466;2022-11-20T04:47:31;9.40;;;5.03;;
7881;SDS011;3986;41.884;23.466;2022-11-20T04:49:58;11.93;;;6.83;;
7881;SDS011;3986;41.884;23.466;2022-11-20T04:52:25;12.97;;;6.07;;
7881;SDS011;3986;41.884;23.466;2022-11-20T04:54:52;9.73;;;5.93;;
7881;SDS011;3986;41.884;23.466;2022-11-20T04:57:19;14.23;;;8.33;;
7881;SDS011;3986;41.884;23.466;2022-11-20T04:59:47;19.13;;;9.57;;
7881;SDS011;3986;41.884;23.466;2022-11-20T05:02:14;12.53;;;7.07;;
7881;SDS011;3986;41.884;23.466;2022-11-20T05:04:40;13.83;;;7.77;;
7881;SDS011;3986;41.884;23.466;2022-11-20T05:07:07;9.93;;;6.63;;
7881;SDS011;3986;41.884;23.466;2022-11-20T05:09:34;9.13;;;6.87;;
7881;SDS011;3986;41.884;23.466;2022-11-20T05:12:01;5.50;;;4.63;;
7881;SDS011;3986;41.884;23.466;2022-11-20T05:14:27;13.47;;;6.30;;
7881;SDS011;3986;41.884;23.466;2022-11-20T05:16:56;11.40;;;6.73;;
7881;SDS011;3986;41.884;23.466;2022-11-20T05:19:22;14.23;;;7.77;;
7881;SDS011;3986;41.884;23.466;2022-11-20T05:21:49;47.20;;;42.07;;
7881;SDS011;3986;41.884;23.466;2022-11-20T05:24:16;10.33;;;7.27;;
7881;SDS011;3986;41.884;23.466;2022-11-20T05:26:43;14.27;;;9.17;;
7881;SDS011;3986;41.884;23.466;2022-11-20T05:29:10;9.87;;;8.63;;
7881;SDS011;3986;41.884;23.466;2022-11-20T05:31:38;7.43;;;6.03;;
7881;SDS011;3986;41.884;23.466;2022-11-20T05:34:07;18.60;;;16.73;;
7881;SDS011;3986;41.884;23.466;2022-11-20T05:36:34;11.90;;;8.23;;
7881;SDS011;3986;41.884;23.466;2022-11-20T05:39:01;12.83;;;10.87;;
7881;SDS011;3986;41.884;23.466;2022-11-20T05:41:28;12.97;;;8.97;;
7881;SDS011;3986;41.884;23.466;2022-11-20T05:43:55;14.47;;;8.47;;
7881;SDS011;3986;41.884;23.466;2022-11-20T05:46:22;15.53;;;9.93;;
7881;SDS011;3986;41.884;23.466;2022-11-20T05:48:49;13.20;;;8.03;;
7881;SDS011;3986;41.884;23.466;2022-11-20T05:51:17;14.37;;;9.53;;
7881;SDS011;3986;41.884;23.466;2022-11-20T05:53:45;12.87;;;7.87;;
7881;SDS011;3986;41.884;23.466;2022-11-20T05:56:12;15.47;;;8.33;;
7881;SDS011;3986;41.884;23.466;2022-11-20T05:58:40;22.93;;;16.63;;
7881;SDS011;3986;41.884;23.466;2022-11-20T06:01:09;11.17;;;8.67;;
7881;SDS011;3986;41.884;23.466;2022-11-20T06:03:36;14.43;;;13.00;;
7881;SDS011;3986;41.884;23.466;2022-11-20T06:06:04;8.90;;;8.00;;
7881;SDS011;3986;41.884;23.466;2022-11-20T06:08:33;17.07;;;10.80;;
7881;SDS011;3986;41.884;23.466;2022-11-20T06:11:03;20.03;;;13.07;;
7881;SDS011;3986;41.884;23.466;2022-11-20T06:13:30;21.53;;;13.53;;
7881;SDS011;3986;41.884;23.466;2022-11-20T06:15:58;17.30;;;9.60;;
7881;SDS011;3986;41.884;23.466;2022-11-20T06:18:25;25.33;;;19.27;;
7881;SDS011;3986;41.884;23.466;2022-11-20T06:20:59;21.97;;;19.37;;
7881;SDS011;3986;41.884;23.466;2022-11-20T06:23:27;24.60;;;16.27;;
7881;SDS011;3986;41.884;23.466;2022-11-20T06:25:56;21.03;;;13.80;;
7881;SDS011;3986;41.884;23.466;2022-11-20T06:28:23;14.43;;;11.10;;
7881;SDS011;3986;41.884;23.466;2022-11-20T06:30:50;15.67;;;8.40;;
7881;SDS011;3986;41.884;23.466;2022-11-20T06:33:17;16.50;;;9.40;;
7881;SDS011;3986;41.884;23.466;2022-11-20T06:35:44;34.33;;;20.70;;
7881;SDS011;3986;41.884;23.466;2022-11-20T06:38:10;17.97;;;9.67;;
7881;SDS011;3986;41.884;23.466;2022-11-20T06:40:39;20.77;;;11.47;;
7881;SDS011;3986;41.884;23.466;2022-11-20T06:43:09;18.40;;;9.97;;
7881;SDS011;3986;41.884;23.466;2022-11-20T06:45:36;17.13;;;11.13;;
7881;SDS011;3986;41.884;23.466;2022-11-20T06:48:03;20.57;;;11.13;;
7881;SDS011;3986;41.884;23.466;2022-11-20T06:50:30;12.90;;;8.67;;
7881;SDS011;3986;41.884;23.466;2022-11-20T06:52:59;28.43;;;22.40;;
7881;SDS011;3986;41.884;23.466;2022-11-20T06:55:27;19.73;;;11.60;;
7881;SDS011;3986;41.884;23.466;2022-11-20T07:01:58;27.27;;;15.77;;
7881;SDS011;3986;41.884;23.466;2022-11-20T07:04:25;17.20;;;14.67;;
7881;SDS011;3986;41.884;23.466;2022-11-20T07:06:52;19.58;;;12.50;;
7881;SDS011;3986;41.884;23.466;2022-11-20T07:09:19;24.33;;;12.77;;
7881;SDS011;3986;41.884;23.466;2022-11-20T07:11:45;24.47;;;18.70;;
7881;SDS011;3986;41.884;23.466;2022-11-20T07:14:12;21.90;;;17.37;;
7881;SDS011;3986;41.884;23.466;2022-11-20T07:16:39;24.67;;;20.97;;
7881;SDS011;3986;41.884;23.466;2022-11-20T07:19:07;27.07;;;16.50;;
7881;SDS011;3986;41.884;23.466;2022-11-20T07:21:34;23.55;;;13.82;;
7881;SDS011;3986;41.884;23.466;2022-11-20T07:24:01;20.90;;;15.10;;
7881;SDS011;3986;41.884;23.466;2022-11-20T07:26:27;24.15;;;13.35;;
7881;SDS011;3986;41.884;23.466;2022-11-20T07:28:54;33.88;;;22.50;;
7881;SDS011;3986;41.884;23.466;2022-11-20T07:31:22;37.30;;;16.73;;
7881;SDS011;3986;41.884;23.466;2022-11-20T07:33:48;33.38;;;20.52;;
7881;SDS011;3986;41.884;23.466;2022-11-20T07:36:16;25.80;;;15.90;;
7881;SDS011;3986;41.884;23.466;2022-11-20T07:38:43;22.70;;;19.50;;
7881;SDS011;3986;41.884;23.466;2022-11-20T07:41:10;25.25;;;16.40;;
7881;SDS011;3986;41.884;23.466;2022-11-20T07:43:37;18.43;;;11.93;;
7881;SDS011;3986;41.884;23.466;2022-11-20T07:46:04;24.80;;;16.30;;
7881;SDS011;3986;41.884;23.466;2022-11-20T07:48:30;126.60;;;80.53;;
7881;SDS011;3986;41.884;23.466;2022-11-20T07:50:57;25.63;;;13.17;;
7881;SDS011;3986;41.884;23.466;2022-11-20T07:53:25;30.48;;;16.25;;
7881;SDS011;3986;41.884;23.466;2022-11-20T07:55:52;41.83;;;15.15;;
7881;SDS011;3986;41.884;23.466;2022-11-20T07:58:19;34.92;;;16.63;;
7881;SDS011;3986;41.884;23.466;2022-11-20T08:00:46;45.77;;;18.03;;
7881;SDS011;3986;41.884;23.466;2022-11-20T08:03:13;28.42;;;13.73;;
7881;SDS011;3986;41.884;23.466;2022-11-20T08:05:40;23.98;;;12.77;;
7881;SDS011;3986;41.884;23.466;2022-11-20T08:08:06;25.52;;;10.52;;
7881;SDS011;3986;41.884;23.466;2022-11-20T08:10:35;27.23;;;11.53;;
7881;SDS011;3986;41.884;23.466;2022-11-20T08:13:02;37.55;;;11.50;;
7881;SDS011;3986;41.884;23.466;2022-11-20T08:15:47;40.33;;;12.17;;
7881;SDS011;3986;41.884;23.466;2022-11-20T08:18:16;20.60;;;7.57;;
7881;SDS011;3986;41.884;23.466;2022-11-20T08:20:43;26.73;;;8.03;;
7881;SDS011;3986;41.884;23.466;2022-11-20T08:23:10;16.03;;;8.43;;
7881;SDS011;3986;41.884;23.466;2022-11-20T08:25:38;25.67;;;13.33;;
7881;SDS011;3986;41.884;23.466;2022-11-20T08:28:06;25.08;;;9.70;;
7881;SDS011;3986;41.884;23.466;2022-11-20T08:30:34;39.90;;;10.43;;
7881;SDS011;3986;41.884;23.466;2022-11-20T08:33:02;48.70;;;17.67;;
7881;SDS011;3986;41.884;23.466;2022-11-20T08:35:32;46.70;;;12.23;;
7881;SDS011;3986;41.884;23.466;2022-11-20T08:38:00;53.60;;;13.13;;
7881;SDS011;3986;41.884;23.466;2022-11-20T08:40:26;33.20;;;10.00;;
7881;SDS011;3986;41.884;23.466;2022-11-20T08:42:54;28.85;;;10.05;;
7881;SDS011;3986;41.884;23.466;2022-11-20T08:45:21;41.77;;;12.13;;
7881;SDS011;3986;41.884;23.466;2022-11-20T08:47:48;29.00;;;9.88;;
7881;SDS011;3986;41.884;23.466;2022-11-20T08:50:15;47.53;;;11.27;;
7881;SDS011;3986;41.884;23.466;2022-11-20T08:52:42;21.93;;;10.40;;
7881;SDS011;3986;41.884;23.466;2022-11-20T08:55:09;28.03;;;10.60;;
7881;SDS011;3986;41.884;23.466;2022-11-20T08:57:36;24.45;;;10.65;;
7881;SDS011;3986;41.884;23.466;2022-11-20T09:00:06;42.85;;;11.52;;
7881;SDS011;3986;41.884;23.466;2022-11-20T09:02:34;40.42;;;11.07;;
7881;SDS011;3986;41.884;23.466;2022-11-20T09:05:01;32.28;;;10.40;;
7881;SDS011;3986;41.884;23.466;2022-11-20T09:07:28;55.30;;;17.77;;
7881;SDS011;3986;41.884;23.466;2022-11-20T09:09:56;35.93;;;12.37;;
7881;SDS011;3986;41.884;23.466;2022-11-20T09:12:22;51.43;;;13.03;;
7881;SDS011;3986;41.884;23.466;2022-11-20T09:14:49;36.22;;;10.77;;
7881;SDS011;3986;41.884;23.466;2022-11-20T09:17:17;20.42;;;9.75;;
7881;SDS011;3986;41.884;23.466;2022-11-20T09:19:45;39.63;;;21.87;;
7881;SDS011;3986;41.884;23.466;2022-11-20T09:22:12;26.23;;;15.88;;
7881;SDS011;3986;41.884;23.466;2022-11-20T09:24:39;42.13;;;14.65;;
7881;SDS011;3986;41.884;23.466;2022-11-20T09:27:05;25.80;;;9.90;;
7881;SDS011;3986;41.884;23.466;2022-11-20T09:29:32;32.38;;;12.23;;
7881;SDS011;3986;41.884;23.466;2022-11-20T09:31:59;46.47;;;16.88;;
7881;SDS011;3986;41.884;23.466;2022-11-20T09:34:27;62.20;;;15.60;;
7881;SDS011;3986;41.884;23.466;2022-11-20T09:36:54;40.92;;;17.13;;
7881;SDS011;3986;41.884;23.466;2022-11-20T09:39:24;75.13;;;22.85;;
7881;SDS011;3986;41.884;23.466;2022-11-20T09:44:49;33.53;;;16.07;;
7881;SDS011;3986;41.884;23.466;2022-11-20T09:47:32;39.63;;;12.27;;
7881;SDS011;3986;41.884;23.466;2022-11-20T09:50:15;42.28;;;14.80;;
7881;SDS011;3986;41.884;23.466;2022-11-20T09:52:55;36.42;;;15.38;;
7881;SDS011;3986;41.884;23.466;2022-11-20T09:55:31;62.43;;;16.30;;
7881;SDS011;3986;41.884;23.466;2022-11-20T09:57:58;38.95;;;11.63;;
7881;SDS011;3986;41.884;23.466;2022-11-20T10:00:26;55.53;;;15.55;;
7881;SDS011;3986;41.884;23.466;2022-11-20T10:02:55;50.80;;;25.98;;
7881;SDS011;3986;41.884;23.466;2022-11-20T10:05:28;46.03;;;22.07;;
7881;SDS011;3986;41.884;23.466;2022-11-20T10:08:02;40.60;;;16.93;;
7881;SDS011;3986;41.884;23.466;2022-11-20T10:10:36;50.08;;;14.65;;
7881;SDS011;3986;41.884;23.466;2022-11-20T10:13:12;44.87;;;18.60;;
7881;SDS011;3986;41.884;23.466;2022-11-20T10:15:50;23.15;;;11.32;;
7881;SDS011;3986;41.884;23.466;2022-11-20T17:11:31;100.20;;;89.40;;
7881;SDS011;3986;41.884;23.466;2022-11-20T17:13:59;124.97;;;111.97;;
7881;SDS011;3986;41.884;23.466;2022-11-20T17:16:26;118.80;;;105.47;;
7881;SDS011;3986;41.884;23.466;2022-11-20T17:18:53;159.77;;;93.57;;
7881;SDS011;3986;41.884;23.466;2022-11-20T17:21:20;95.30;;;81.97;;
7881;SDS011;3986;41.884;23.466;2022-11-20T17:23:48;109.73;;;75.40;;
7881;SDS011;3986;41.884;23.466;2022-11-20T17:26:15;86.50;;;68.43;;
7881;SDS011;3986;41.884;23.466;2022-11-20T17:28:45;108.53;;;79.60;;
7881;SDS011;3986;41.884;23.466;2022-11-20T17:31:12;124.33;;;67.83;;
7881;SDS011;3986;41.884;23.466;2022-11-20T17:33:41;88.10;;;62.20;;
7881;SDS011;3986;41.884;23.466;2022-11-20T17:36:10;124.63;;;112.23;;
7881;SDS011;3986;41.884;23.466;2022-11-20T17:38:38;140.50;;;103.57;;
7881;SDS011;3986;41.884;23.466;2022-11-20T17:41:05;93.10;;;81.63;;
7881;SDS011;3986;41.884;23.466;2022-11-20T17:43:33;86.20;;;74.80;;
7881;SDS011;3986;41.884;23.466;2022-11-20T17:46:04;63.00;;;49.53;;
7881;SDS011;3986;41.884;23.466;2022-11-20T17:48:31;46.83;;;38.80;;
7881;SDS011;3986;41.884;23.466;2022-11-20T17:50:58;73.60;;;45.27;;
7881;SDS011;3986;41.884;23.466;2022-11-20T17:53:25;74.57;;;47.00;;
7881;SDS011;3986;41.884;23.466;2022-11-20T17:55:55;77.50;;;50.87;;
7881;SDS011;3986;41.884;23.466;2022-11-20T17:58:39;83.23;;;57.13;;
7881;SDS011;3986;41.884;23.466;2022-11-20T18:01:08;102.07;;;87.27;;
7881;SDS011;3986;41.884;23.466;2022-11-20T18:03:35;139.57;;;104.60;;
7881;SDS011;3986;41.884;23.466;2022-11-20T18:06:07;103.90;;;93.80;;
7881;SDS011;3986;41.884;23.466;2022-11-20T18:08:35;143.30;;;88.63;;
7881;SDS011;3986;41.884;23.466;2022-11-20T18:11:08;80.60;;;68.03;;
7881;SDS011;3986;41.884;23.466;2022-11-20T18:13:36;78.60;;;51.17;;
7881;SDS011;3986;41.884;23.466;2022-11-20T18:16:22;64.47;;;45.23;;
7881;SDS011;3986;41.884;23.466;2022-11-20T18:18:52;57.50;;;46.37;;
7881;SDS011;3986;41.884;23.466;2022-11-20T18:21:20;109.00;;;76.67;;
7881;SDS011;3986;41.884;23.466;2022-11-20T18:23:47;78.33;;;43.00;;
7881;SDS011;3986;41.884;23.466;2022-11-20T18:26:14;50.13;;;37.97;;
7881;SDS011;3986;41.884;23.466;2022-11-20T18:28:41;76.83;;;42.43;;
7881;SDS011;3986;41.884;23.466;2022-11-20T18:31:08;40.67;;;31.20;;
7881;SDS011;3986;41.884;23.466;2022-11-20T18:33:36;116.40;;;37.77;;
7881;SDS011;3986;41.884;23.466;2022-11-20T18:36:10;45.13;;;26.77;;
7881;SDS011;3986;41.884;23.466;2022-11-20T18:38:38;55.20;;;24.33;;
7881;SDS011;3986;41.884;23.466;2022-11-20T18:41:06;45.97;;;38.73;;
7881;SDS011;3986;41.884;23.466;2022-11-20T18:43:53;74.40;;;47.80;;
7881;SDS011;3986;41.884;23.466;2022-11-20T18:46:37;53.57;;;26.70;;
7881;SDS011;3986;41.884;23.466;2022-11-20T18:49:05;110.30;;;26.50;;
7881;SDS011;3986;41.884;23.466;2022-11-20T18:51:32;30.17;;;22.87;;
7881;SDS011;3986;41.884;23.466;2022-11-20T18:53:58;38.00;;;21.57;;
7881;SDS011;3986;41.884;23.466;2022-11-20T18:56:26;47.40;;;22.43;;
7881;SDS011;3986;41.884;23.466;2022-11-20T18:58:53;34.70;;;21.03;;
7881;SDS011;3986;41.884;23.466;2022-11-20T19:01:20;90.10;;;28.83;;
7881;SDS011;3986;41.884;23.466;2022-11-20T19:03:47;70.67;;;29.50;;
7881;SDS011;3986;41.884;23.466;2022-11-20T19:06:15;74.43;;;25.53;;
7881;SDS011;3986;41.884;23.466;2022-11-20T19:08:42;67.90;;;25.23;;
7881;SDS011;3986;41.884;23.466;2022-11-20T19:11:10;55.70;;;16.37;;
7881;SDS011;3986;41.884;23.466;2022-11-20T19:13:38;55.73;;;15.53;;
7881;SDS011;3986;41.884;23.466;2022-11-20T19:16:06;32.00;;;13.50;;
7881;SDS011;3986;41.884;23.466;2022-11-20T19:18:34;30.60;;;13.83;;
7881;SDS011;3986;41.884;23.466;2022-11-20T19:21:05;16.80;;;11.73;;
7881;SDS011;3986;41.884;23.466;2022-11-20T19:23:34;21.60;;;11.93;;
7881;SDS011;3986;41.884;23.466;2022-11-20T19:26:00;32.33;;;15.13;;
7881;SDS011;3986;41.884;23.466;2022-11-20T19:28:28;25.27;;;15.67;;
7881;SDS011;3986;41.884;23.466;2022-11-20T19:31:01;37.77;;;20.53;;
7881;SDS011;3986;41.884;23.466;2022-11-20T19:33:28;28.00;;;23.60;;
7881;SDS011;3986;41.884;23.466;2022-11-20T19:35:55;53.80;;;27.63;;
7881;SDS011;3986;41.884;23.466;2022-11-20T19:38:22;44.43;;;22.80;;
7881;SDS011;3986;41.884;23.466;2022-11-20T19:40:51;40.57;;;19.17;;
7881;SDS011;3986;41.884;23.466;2022-11-20T19:43:17;36.03;;;18.53;;
7881;SDS011;3986;41.884;23.466;2022-11-20T19:45:44;32.17;;;22.63;;
7881;SDS011;3986;41.884;23.466;2022-11-20T19:48:11;48.13;;;23.63;;
7881;SDS011;3986;41.884;23.466;2022-11-20T19:50:38;30.27;;;21.33;;
7881;SDS011;3986;41.884;23.466;2022-11-20T19:53:04;36.23;;;19.17;;
7881;SDS011;3986;41.884;23.466;2022-11-20T19:55:31;27.37;;;19.83;;
7881;SDS011;3986;41.884;23.466;2022-11-20T19:58:00;40.07;;;23.07;;
7881;SDS011;3986;41.884;23.466;2022-11-20T20:00:27;105.47;;;29.20;;
7881;SDS011;3986;41.884;23.466;2022-11-20T20:02:55;41.17;;;21.77;;
7881;SDS011;3986;41.884;23.466;2022-11-20T20:05:22;45.00;;;29.30;;
7881;SDS011;3986;41.884;23.466;2022-11-20T20:07:49;39.83;;;25.37;;
7881;SDS011;3986;41.884;23.466;2022-11-20T20:10:16;29.50;;;23.03;;
7881;SDS011;3986;41.884;23.466;2022-11-20T20:12:44;71.63;;;23.20;;
7881;SDS011;3986;41.884;23.466;2022-11-20T20:15:12;33.20;;;20.67;;
7881;SDS011;3986;41.884;23.466;2022-11-20T20:17:39;27.23;;;16.60;;
7881;SDS011;3986;41.884;23.466;2022-11-20T20:20:06;22.63;;;19.13;;
7881;SDS011;3986;41.884;23.466;2022-11-20T20:22:33;24.83;;;20.00;;
7881;SDS011;3986;41.884;23.466;2022-11-20T20:25:00;31.73;;;24.60;;
7881;SDS011;3986;41.884;23.466;2022-11-20T20:27:27;28.87;;;22.47;;
7881;SDS011;3986;41.884;23.466;2022-11-20T20:29:55;43.03;;;21.00;;
7881;SDS011;3986;41.884;23.466;2022-11-20T20:32:23;27.10;;;11.47;;
7881;SDS011;3986;41.884;23.466;2022-11-20T20:34:50;31.10;;;13.23;;
7881;SDS011;3986;41.884;23.466;2022-11-20T20:37:17;22.40;;;11.60;;
7881;SDS011;3986;41.884;23.466;2022-11-20T20:39:43;29.03;;;11.03;;
7881;SDS011;3986;41.884;23.466;2022-11-20T20:42:10;37.50;;;12.10;;
7881;SDS011;3986;41.884;23.466;2022-11-20T20:44:37;35.13;;;18.83;;
7881;SDS011;3986;41.884;23.466;2022-11-20T20:47:21;55.57;;;33.47;;
7881;SDS011;3986;41.884;23.466;2022-11-20T20:49:49;57.83;;;38.37;;
7881;SDS011;3986;41.884;23.466;2022-11-20T20:52:16;53.63;;;25.20;;
7881;SDS011;3986;41.884;23.466;2022-11-20T20:54:42;39.80;;;18.40;;
7881;SDS011;3986;41.884;23.466;2022-11-20T20:57:09;30.80;;;18.77;;
7881;SDS011;3986;41.884;23.466;2022-11-20T20:59:36;48.80;;;33.90;;
7881;SDS011;3986;41.884;23.466;2022-11-20T21:02:03;45.23;;;24.20;;
7881;SDS011;3986;41.884;23.466;2022-11-20T21:04:30;23.37;;;19.23;;
7881;SDS011;3986;41.884;23.466;2022-11-20T21:06:59;34.10;;;19.67;;
7881;SDS011;3986;41.884;23.466;2022-11-20T21:09:26;42.73;;;27.03;;
7881;SDS011;3986;41.884;23.466;2022-11-20T21:11:52;51.43;;;35.30;;
7881;SDS011;3986;41.884;23.466;2022-11-20T21:14:19;46.97;;;23.33;;
7881;SDS011;3986;41.884;23.466;2022-11-20T21:16:46;36.60;;;19.57;;
7881;SDS011;3986;41.884;23.466;2022-11-20T21:19:13;35.30;;;18.30;;
7881;SDS011;3986;41.884;23.466;2022-11-20T21:21:40;29.17;;;16.23;;
7881;SDS011;3986;41.884;23.466;2022-11-20T21:24:28;30.73;;;16.53;;
7881;SDS011;3986;41.884;23.466;2022-11-20T21:26:57;32.13;;;16.87;;
7881;SDS011;3986;41.884;23.466;2022-11-20T21:29:24;35.40;;;12.90;;
7881;SDS011;3986;41.884;23.466;2022-11-20T21:31:52;37.37;;;14.00;;
7881;SDS011;3986;41.884;23.466;2022-11-20T21:34:20;30.97;;;13.00;;
7881;SDS011;3986;41.884;23.466;2022-11-20T21:36:48;44.00;;;13.37;;
7881;SDS011;3986;41.884;23.466;2022-11-20T21:39:15;28.50;;;12.90;;
7881;SDS011;3986;41.884;23.466;2022-11-20T21:41:44;26.37;;;12.90;;
7881;SDS011;3986;41.884;23.466;2022-11-20T21:44:12;26.40;;;12.50;;
7881;SDS011;3986;41.884;23.466;2022-11-20T21:46:40;31.50;;;13.57;;